sensor_id;sensor_type;location;lat;lon;timestamp;temperature;humidity
28845;DHT22;15976;47.938;7.758;2023-06-19T08:37:05;31.30;48.60
28845;DHT22;15976;47.938;7.758;2023-06-19T08:39:32;31.90;47.50
28845;DHT22;15976;47.938;7.758;2023-06-19T08:42:00;32.40;46.60
28845;DHT22;15976;47.938;7.758;2023-06-19T08:44:31;32.60;45.20
28845;DHT22;15976;47.938;7.758;2023-06-19T08:47:03;32.60;44.30
28845;DHT22;15976;47.938;7.758;2023-06-19T08:49:31;32.60;43.90
28845;DHT22;15976;47.938;7.758;2023-06-19T08:52:01;32.70;43.50
28845;DHT22;15976;47.938;7.758;2023-06-19T08:54:29;32.90;42.90
28845;DHT22;15976;47.938;7.758;2023-06-19T08:56:59;33.10;42.30
28845;DHT22;15976;47.938;7.758;2023-06-19T08:59:32;33.20;41.10
28845;DHT22;15976;47.938;7.758;2023-06-19T09:02:05;33.30;40.10
28845;DHT22;15976;47.938;7.758;2023-06-19T09:04:34;33.60;39.80
28845;DHT22;15976;47.938;7.758;2023-06-19T09:07:08;34.00;39.10
28845;DHT22;15976;47.938;7.758;2023-06-19T09:09:45;34.50;38.30
28845;DHT22;15976;47.938;7.758;2023-06-19T09:12:15;35.00;37.30
28845;DHT22;15976;47.938;7.758;2023-06-19T09:14:48;35.40;35.90
28845;DHT22;15976;47.938;7.758;2023-06-19T09:17:20;35.60;34.30
28845;DHT22;15976;47.938;7.758;2023-06-19T09:19:51;35.70;32.50
28845;DHT22;15976;47.938;7.758;2023-06-19T09:22:21;35.90;30.60
28845;DHT22;15976;47.938;7.758;2023-06-19T09:27:49;36.10;29.30
28845;DHT22;15976;47.938;7.758;2023-06-19T09:30:17;36.40;29.70
28845;DHT22;15976;47.938;7.758;2023-06-19T09:32:46;36.70;28.00
28845;DHT22;15976;47.938;7.758;2023-06-19T10:27:01;41.60;23.20
28845;DHT22;15976;47.938;7.758;2023-06-19T10:29:42;41.60;22.80
28845;DHT22;15976;47.938;7.758;2023-06-19T10:32:32;41.40;22.80
28845;DHT22;15976;47.938;7.758;2023-06-19T10:39:42;42.40;22.70
28845;DHT22;15976;47.938;7.758;2023-06-19T10:42:26;43.20;22.30
28845;DHT22;15976;47.938;7.758;2023-06-19T10:45:03;43.30;22.30
28845;DHT22;15976;47.938;7.758;2023-06-19T10:48:05;43.10;22.00
28845;DHT22;15976;47.938;7.758;2023-06-19T10:52:17;42.80;21.60
28845;DHT22;15976;47.938;7.758;2023-06-19T10:59:53;43.60;21.30
28845;DHT22;15976;47.938;7.758;2023-06-19T11:02:55;44.30;21.60
28845;DHT22;15976;47.938;7.758;2023-06-19T11:05:36;44.40;20.30
28845;DHT22;15976;47.938;7.758;2023-06-19T11:09:03;43.70;20.50
28845;DHT22;15976;47.938;7.758;2023-06-19T11:11:40;42.50;21.60
28845;DHT22;15976;47.938;7.758;2023-06-19T11:14:08;41.60;21.70
28845;DHT22;15976;47.938;7.758;2023-06-19T11:17:11;40.80;22.20
28845;DHT22;15976;47.938;7.758;2023-06-19T11:43:04;37.60;24.20
28845;DHT22;15976;47.938;7.758;2023-06-19T11:45:31;37.90;24.20
28845;DHT22;15976;47.938;7.758;2023-06-19T11:47:59;38.50;24.10
28845;DHT22;15976;47.938;7.758;2023-06-19T11:50:34;39.20;23.80
28845;DHT22;15976;47.938;7.758;2023-06-19T11:53:02;39.60;23.70
28845;DHT22;15976;47.938;7.758;2023-06-19T11:55:29;40.00;23.60
28845;DHT22;15976;47.938;7.758;2023-06-19T11:57:57;40.30;23.10
28845;DHT22;15976;47.938;7.758;2023-06-19T12:00:24;40.90;22.80
28845;DHT22;15976;47.938;7.758;2023-06-19T12:02:51;41.50;22.10
28845;DHT22;15976;47.938;7.758;2023-06-19T12:05:20;42.00;21.30
28845;DHT22;15976;47.938;7.758;2023-06-19T12:08:13;42.00;21.00
28845;DHT22;15976;47.938;7.758;2023-06-19T12:10:40;41.80;20.80
28845;DHT22;15976;47.938;7.758;2023-06-19T12:13:07;41.40;21.20
28845;DHT22;15976;47.938;7.758;2023-06-19T12:15:34;41.00;21.30
28845;DHT22;15976;47.938;7.758;2023-06-19T12:18:03;40.50;21.60
28845;DHT22;15976;47.938;7.758;2023-06-19T12:20:31;39.70;21.70
28845;DHT22;15976;47.938;7.758;2023-06-19T12:23:03;38.80;22.20
28845;DHT22;15976;47.938;7.758;2023-06-19T12:25:32;38.10;23.00
28845;DHT22;15976;47.938;7.758;2023-06-19T12:28:25;37.70;23.40
28845;DHT22;15976;47.938;7.758;2023-06-19T12:30:53;37.60;23.70
28845;DHT22;15976;47.938;7.758;2023-06-19T12:33:24;37.40;23.90
28845;DHT22;15976;47.938;7.758;2023-06-19T12:36:00;37.20;24.10
28845;DHT22;15976;47.938;7.758;2023-06-19T12:38:32;37.20;24.40
28845;DHT22;15976;47.938;7.758;2023-06-19T12:41:02;38.00;24.10
28845;DHT22;15976;47.938;7.758;2023-06-19T12:43:29;38.50;23.60
28845;DHT22;15976;47.938;7.758;2023-06-19T12:45:59;38.90;23.40
28845;DHT22;15976;47.938;7.758;2023-06-19T12:48:32;38.80;23.50
28845;DHT22;15976;47.938;7.758;2023-06-19T12:51:02;38.30;23.70
28845;DHT22;15976;47.938;7.758;2023-06-19T12:53:29;37.90;24.10
28845;DHT22;15976;47.938;7.758;2023-06-19T12:55:57;37.40;24.30
28845;DHT22;15976;47.938;7.758;2023-06-19T12:58:30;36.90;24.50
28845;DHT22;15976;47.938;7.758;2023-06-19T13:00:58;36.10;24.80
28845;DHT22;15976;47.938;7.758;2023-06-19T13:03:25;35.50;25.20
28845;DHT22;15976;47.938;7.758;2023-06-19T13:05:52;35.20;25.50
28845;DHT22;15976;47.938;7.758;2023-06-19T13:08:19;34.90;25.80
28845;DHT22;15976;47.938;7.758;2023-06-19T13:10:53;34.70;26.10
28845;DHT22;15976;47.938;7.758;2023-06-19T13:13:21;34.40;26.60
28845;DHT22;15976;47.938;7.758;2023-06-19T13:16:12;34.30;26.80
28845;DHT22;15976;47.938;7.758;2023-06-19T13:18:41;34.20;27.20
28845;DHT22;15976;47.938;7.758;2023-06-19T13:21:08;34.20;27.40
28845;DHT22;15976;47.938;7.758;2023-06-19T13:23:35;34.30;27.80
28845;DHT22;15976;47.938;7.758;2023-06-19T13:26:09;34.50;27.90
28845;DHT22;15976;47.938;7.758;2023-06-19T13:28:37;34.90;28.10
28845;DHT22;15976;47.938;7.758;2023-06-19T13:31:12;35.40;27.60
28845;DHT22;15976;47.938;7.758;2023-06-19T13:33:40;36.10;28.00
28845;DHT22;15976;47.938;7.758;2023-06-19T13:36:08;37.40;27.30
28845;DHT22;15976;47.938;7.758;2023-06-19T13:38:36;38.90;25.60
28845;DHT22;15976;47.938;7.758;2023-06-19T13:41:07;40.30;24.20
28845;DHT22;15976;47.938;7.758;2023-06-19T13:43:34;41.50;23.20
28845;DHT22;15976;47.938;7.758;2023-06-19T13:46:01;42.50;22.60
28845;DHT22;15976;47.938;7.758;2023-06-19T13:48:32;43.20;22.10
28845;DHT22;15976;47.938;7.758;2023-06-19T13:51:02;43.70;21.70
28845;DHT22;15976;47.938;7.758;2023-06-19T13:53:29;43.90;20.90
28845;DHT22;15976;47.938;7.758;2023-06-19T13:56:03;44.10;20.80
28845;DHT22;15976;47.938;7.758;2023-06-19T13:58:30;44.20;20.50
28845;DHT22;15976;47.938;7.758;2023-06-19T14:00:57;44.30;20.50
28845;DHT22;15976;47.938;7.758;2023-06-19T14:03:24;44.20;20.30
28845;DHT22;15976;47.938;7.758;2023-06-19T14:05:52;44.10;20.70
28845;DHT22;15976;47.938;7.758;2023-06-19T14:08:22;44.00;20.40
28845;DHT22;15976;47.938;7.758;2023-06-19T14:10:51;43.70;20.90
28845;DHT22;15976;47.938;7.758;2023-06-19T14:13:18;43.20;21.00
28845;DHT22;15976;47.938;7.758;2023-06-19T14:15:45;42.70;21.30
28845;DHT22;15976;47.938;7.758;2023-06-19T14:18:12;42.20;21.60
28845;DHT22;15976;47.938;7.758;2023-06-19T14:20:40;42.00;22.40
28845;DHT22;15976;47.938;7.758;2023-06-19T14:23:10;42.30;21.90
28845;DHT22;15976;47.938;7.758;2023-06-19T14:25:37;42.90;21.40
28845;DHT22;15976;47.938;7.758;2023-06-19T14:28:10;43.30;20.90
28845;DHT22;15976;47.938;7.758;2023-06-19T14:30:37;43.60;21.00
28845;DHT22;15976;47.938;7.758;2023-06-19T14:33:05;44.00;20.90
28845;DHT22;15976;47.938;7.758;2023-06-19T14:35:43;44.00;20.40
28845;DHT22;15976;47.938;7.758;2023-06-19T14:38:13;44.10;20.40
28845;DHT22;15976;47.938;7.758;2023-06-19T14:40:45;44.20;20.20
28845;DHT22;15976;47.938;7.758;2023-06-19T14:43:14;44.10;20.40
28845;DHT22;15976;47.938;7.758;2023-06-19T14:45:44;44.30;20.70
28845;DHT22;15976;47.938;7.758;2023-06-19T14:48:14;44.50;20.10
28845;DHT22;15976;47.938;7.758;2023-06-19T14:51:00;44.60;20.30
28845;DHT22;15976;47.938;7.758;2023-06-19T14:53:39;44.40;20.20
28845;DHT22;15976;47.938;7.758;2023-06-19T14:56:14;43.70;20.40
28845;DHT22;15976;47.938;7.758;2023-06-19T14:58:54;43.10;21.10
28845;DHT22;15976;47.938;7.758;2023-06-19T15:01:29;42.50;21.40
28845;DHT22;15976;47.938;7.758;2023-06-19T15:04:06;42.40;21.50
28845;DHT22;15976;47.938;7.758;2023-06-19T15:07:03;42.60;21.50
28845;DHT22;15976;47.938;7.758;2023-06-19T15:09:33;42.80;21.40
28845;DHT22;15976;47.938;7.758;2023-06-19T15:12:08;42.70;21.30
28845;DHT22;15976;47.938;7.758;2023-06-19T15:15:16;42.20;21.40
28845;DHT22;15976;47.938;7.758;2023-06-19T15:17:51;41.20;21.90
28845;DHT22;15976;47.938;7.758;2023-06-19T15:20:39;40.40;22.50
28845;DHT22;15976;47.938;7.758;2023-06-19T15:23:07;39.50;23.20
28845;DHT22;15976;47.938;7.758;2023-06-19T15:25:35;38.80;23.80
28845;DHT22;15976;47.938;7.758;2023-06-19T15:28:02;38.20;24.30
28845;DHT22;15976;47.938;7.758;2023-06-19T15:30:31;37.80;24.60
28845;DHT22;15976;47.938;7.758;2023-06-19T15:33:01;37.50;25.00
28845;DHT22;15976;47.938;7.758;2023-06-19T15:35:31;37.30;25.40
28845;DHT22;15976;47.938;7.758;2023-06-19T15:37:59;37.00;25.90
28845;DHT22;15976;47.938;7.758;2023-06-19T15:40:29;36.80;26.20
28845;DHT22;15976;47.938;7.758;2023-06-19T15:42:58;36.50;26.30
28845;DHT22;15976;47.938;7.758;2023-06-19T15:45:28;36.40;26.40
28845;DHT22;15976;47.938;7.758;2023-06-19T16:24:25;34.40;29.10
28845;DHT22;15976;47.938;7.758;2023-06-19T16:26:52;34.20;29.20
28845;DHT22;15976;47.938;7.758;2023-06-19T16:29:19;34.10;29.30
28845;DHT22;15976;47.938;7.758;2023-06-19T16:31:46;33.90;29.40
28845;DHT22;15976;47.938;7.758;2023-06-19T16:34:48;33.80;29.50
28845;DHT22;15976;47.938;7.758;2023-06-19T16:37:14;33.80;29.60
28845;DHT22;15976;47.938;7.758;2023-06-19T16:39:41;33.70;29.70
28845;DHT22;15976;47.938;7.758;2023-06-19T16:42:08;33.60;30.00
28845;DHT22;15976;47.938;7.758;2023-06-19T16:44:35;33.40;30.40
28845;DHT22;15976;47.938;7.758;2023-06-19T16:47:02;33.30;30.00
28845;DHT22;15976;47.938;7.758;2023-06-19T16:49:29;33.20;30.10
28845;DHT22;15976;47.938;7.758;2023-06-19T16:51:56;33.10;30.20
28845;DHT22;15976;47.938;7.758;2023-06-19T16:54:23;33.00;30.40
28845;DHT22;15976;47.938;7.758;2023-06-19T16:56:50;32.90;30.60
28845;DHT22;15976;47.938;7.758;2023-06-19T16:59:17;32.80;30.70
28845;DHT22;15976;47.938;7.758;2023-06-19T17:01:44;32.80;30.90
28845;DHT22;15976;47.938;7.758;2023-06-19T17:04:12;32.60;30.90
28845;DHT22;15976;47.938;7.758;2023-06-19T17:06:39;32.60;31.20
28845;DHT22;15976;47.938;7.758;2023-06-19T17:09:06;32.50;31.30
28845;DHT22;15976;47.938;7.758;2023-06-19T17:11:33;32.40;31.40
28845;DHT22;15976;47.938;7.758;2023-06-19T17:14:00;32.40;31.60
28845;DHT22;15976;47.938;7.758;2023-06-19T17:16:27;32.50;31.90
28845;DHT22;15976;47.938;7.758;2023-06-19T17:18:53;32.50;31.90
28845;DHT22;15976;47.938;7.758;2023-06-19T17:21:20;32.50;31.70
28845;DHT22;15976;47.938;7.758;2023-06-19T17:23:47;32.50;31.70
28845;DHT22;15976;47.938;7.758;2023-06-19T17:26:14;32.50;31.60
28845;DHT22;15976;47.938;7.758;2023-06-19T17:28:41;32.40;31.30
28845;DHT22;15976;47.938;7.758;2023-06-19T17:31:09;32.20;31.30
28845;DHT22;15976;47.938;7.758;2023-06-19T17:33:36;32.20;31.80
28845;DHT22;15976;47.938;7.758;2023-06-19T17:36:03;32.10;32.00
28845;DHT22;15976;47.938;7.758;2023-06-19T17:38:30;32.00;32.10
28845;DHT22;15976;47.938;7.758;2023-06-19T17:40:57;32.00;32.30
28845;DHT22;15976;47.938;7.758;2023-06-19T17:43:24;31.90;32.30
28845;DHT22;15976;47.938;7.758;2023-06-19T17:45:51;31.80;32.50
28845;DHT22;15976;47.938;7.758;2023-06-19T17:48:18;31.80;32.50
28845;DHT22;15976;47.938;7.758;2023-06-19T17:50:45;31.70;32.60
28845;DHT22;15976;47.938;7.758;2023-06-19T17:53:13;31.60;32.80
28845;DHT22;15976;47.938;7.758;2023-06-19T17:55:40;31.60;33.70
28845;DHT22;15976;47.938;7.758;2023-06-19T17:58:09;31.50;33.40
28845;DHT22;15976;47.938;7.758;2023-06-19T18:00:36;31.40;33.50
28845;DHT22;15976;47.938;7.758;2023-06-19T18:03:05;31.30;33.60
28845;DHT22;15976;47.938;7.758;2023-06-19T18:05:35;31.30;33.80
28845;DHT22;15976;47.938;7.758;2023-06-19T18:08:02;31.20;34.00
28845;DHT22;15976;47.938;7.758;2023-06-19T18:10:28;31.10;34.20
28845;DHT22;15976;47.938;7.758;2023-06-19T18:12:55;31.00;34.20
28845;DHT22;15976;47.938;7.758;2023-06-19T18:15:24;31.00;34.50
28845;DHT22;15976;47.938;7.758;2023-06-19T18:17:51;30.90;34.60
28845;DHT22;15976;47.938;7.758;2023-06-19T18:20:18;30.80;35.00
28845;DHT22;15976;47.938;7.758;2023-06-19T18:22:45;30.80;35.30
28845;DHT22;15976;47.938;7.758;2023-06-19T18:25:12;30.70;35.50
28845;DHT22;15976;47.938;7.758;2023-06-19T18:27:39;30.60;35.50
28845;DHT22;15976;47.938;7.758;2023-06-19T18:30:07;30.60;35.80
28845;DHT22;15976;47.938;7.758;2023-06-19T18:32:34;30.60;36.10
28845;DHT22;15976;47.938;7.758;2023-06-19T18:35:02;30.50;36.10
28845;DHT22;15976;47.938;7.758;2023-06-19T18:37:30;30.40;36.20
28845;DHT22;15976;47.938;7.758;2023-06-19T18:39:57;30.30;36.60
28845;DHT22;15976;47.938;7.758;2023-06-19T18:42:24;30.30;37.40
28845;DHT22;15976;47.938;7.758;2023-06-19T18:44:50;30.30;38.20
28845;DHT22;15976;47.938;7.758;2023-06-19T18:47:17;30.10;38.60
28845;DHT22;15976;47.938;7.758;2023-06-19T18:49:44;30.00;38.90
28845;DHT22;15976;47.938;7.758;2023-06-19T18:52:11;29.90;39.20
28845;DHT22;15976;47.938;7.758;2023-06-19T18:54:38;29.70;39.50
28845;DHT22;15976;47.938;7.758;2023-06-19T18:57:05;29.60;39.40
28845;DHT22;15976;47.938;7.758;2023-06-19T18:59:33;29.40;39.30
28845;DHT22;15976;47.938;7.758;2023-06-19T19:02:01;29.40;39.40
28845;DHT22;15976;47.938;7.758;2023-06-19T19:04:34;29.30;39.50
28845;DHT22;15976;47.938;7.758;2023-06-19T19:07:04;29.10;39.60
28845;DHT22;15976;47.938;7.758;2023-06-19T19:09:31;28.90;39.80
28845;DHT22;15976;47.938;7.758;2023-06-19T19:11:58;28.80;39.90
28845;DHT22;15976;47.938;7.758;2023-06-19T19:14:25;28.80;40.20
28845;DHT22;15976;47.938;7.758;2023-06-19T19:16:52;28.60;40.20
28845;DHT22;15976;47.938;7.758;2023-06-19T19:19:19;28.60;40.60
28845;DHT22;15976;47.938;7.758;2023-06-19T19:21:46;28.40;40.90
28845;DHT22;15976;47.938;7.758;2023-06-19T19:24:13;28.40;41.00
28845;DHT22;15976;47.938;7.758;2023-06-19T19:26:42;28.30;40.90
28845;DHT22;15976;47.938;7.758;2023-06-19T19:29:08;28.20;41.10
28845;DHT22;15976;47.938;7.758;2023-06-19T19:31:35;28.20;42.00
28845;DHT22;15976;47.938;7.758;2023-06-19T19:34:02;28.10;41.40
28845;DHT22;15976;47.938;7.758;2023-06-19T19:36:29;28.00;41.30
28845;DHT22;15976;47.938;7.758;2023-06-19T19:38:56;27.90;41.40
28845;DHT22;15976;47.938;7.758;2023-06-19T19:41:23;27.90;41.80
28845;DHT22;15976;47.938;7.758;2023-06-19T19:43:50;27.80;41.90
28845;DHT22;15976;47.938;7.758;2023-06-19T19:46:17;27.80;42.00
28845;DHT22;15976;47.938;7.758;2023-06-19T19:48:44;27.60;41.60
28845;DHT22;15976;47.938;7.758;2023-06-19T19:51:10;27.60;41.80
28845;DHT22;15976;47.938;7.758;2023-06-19T19:53:38;27.40;41.80
28845;DHT22;15976;47.938;7.758;2023-06-19T19:56:05;27.40;42.00
28845;DHT22;15976;47.938;7.758;2023-06-19T19:58:35;27.10;42.10
28845;DHT22;15976;47.938;7.758;2023-06-19T20:01:03;27.00;42.50
28845;DHT22;15976;47.938;7.758;2023-06-19T20:03:31;27.00;42.90
28845;DHT22;15976;47.938;7.758;2023-06-19T20:06:04;26.90;42.70
28845;DHT22;15976;47.938;7.758;2023-06-19T20:08:32;26.90;42.90
28845;DHT22;15976;47.938;7.758;2023-06-19T20:10:59;26.90;43.10
28845;DHT22;15976;47.938;7.758;2023-06-19T20:13:26;26.80;43.20
28845;DHT22;15976;47.938;7.758;2023-06-19T20:15:53;26.80;43.50
28845;DHT22;15976;47.938;7.758;2023-06-19T20:18:20;26.80;44.00
28845;DHT22;15976;47.938;7.758;2023-06-19T20:20:48;26.80;44.30
28845;DHT22;15976;47.938;7.758;2023-06-19T20:23:15;26.80;44.50
28845;DHT22;15976;47.938;7.758;2023-06-19T20:25:42;26.80;44.30
28845;DHT22;15976;47.938;7.758;2023-06-19T20:28:11;26.80;44.20
28845;DHT22;15976;47.938;7.758;2023-06-19T20:30:38;26.80;44.30
28845;DHT22;15976;47.938;7.758;2023-06-19T20:33:05;26.80;44.80
28845;DHT22;15976;47.938;7.758;2023-06-19T20:35:32;26.80;45.20
28845;DHT22;15976;47.938;7.758;2023-06-19T20:37:59;26.80;45.40
28845;DHT22;15976;47.938;7.758;2023-06-19T20:40:26;26.70;45.50
28845;DHT22;15976;47.938;7.758;2023-06-19T20:42:54;26.70;45.90
28845;DHT22;15976;47.938;7.758;2023-06-19T20:45:21;26.70;46.50
28845;DHT22;15976;47.938;7.758;2023-06-19T20:47:53;26.60;45.80
28845;DHT22;15976;47.938;7.758;2023-06-19T20:50:20;26.60;45.60
28845;DHT22;15976;47.938;7.758;2023-06-19T20:52:47;26.60;45.70
28845;DHT22;15976;47.938;7.758;2023-06-19T20:55:15;26.50;46.00
28845;DHT22;15976;47.938;7.758;2023-06-19T20:57:42;26.50;46.30
28845;DHT22;15976;47.938;7.758;2023-06-19T21:00:10;26.50;46.50
28845;DHT22;15976;47.938;7.758;2023-06-19T21:02:37;26.40;46.60
28845;DHT22;15976;47.938;7.758;2023-06-19T21:05:06;26.40;46.70
28845;DHT22;15976;47.938;7.758;2023-06-19T21:07:38;26.30;47.10
28845;DHT22;15976;47.938;7.758;2023-06-19T21:10:05;26.20;47.30
28845;DHT22;15976;47.938;7.758;2023-06-19T21:12:32;26.10;47.50
28845;DHT22;15976;47.938;7.758;2023-06-19T21:14:59;26.10;47.60
28845;DHT22;15976;47.938;7.758;2023-06-19T21:17:26;26.00;47.50
28845;DHT22;15976;47.938;7.758;2023-06-19T21:19:53;26.00;47.50
28845;DHT22;15976;47.938;7.758;2023-06-19T21:22:20;25.90;47.30
28845;DHT22;15976;47.938;7.758;2023-06-19T21:24:47;25.90;47.70
28845;DHT22;15976;47.938;7.758;2023-06-19T21:27:15;25.90;48.10
28845;DHT22;15976;47.938;7.758;2023-06-19T21:29:42;25.90;48.20
28845;DHT22;15976;47.938;7.758;2023-06-19T21:32:10;25.90;48.30
28845;DHT22;15976;47.938;7.758;2023-06-19T21:34:37;25.90;48.40
28845;DHT22;15976;47.938;7.758;2023-06-19T21:37:04;25.80;48.40
28845;DHT22;15976;47.938;7.758;2023-06-19T21:39:31;25.80;48.70
28845;DHT22;15976;47.938;7.758;2023-06-19T21:41:58;25.70;49.00
28845;DHT22;15976;47.938;7.758;2023-06-19T21:44:25;25.70;49.30
28845;DHT22;15976;47.938;7.758;2023-06-19T21:46:52;25.70;49.30
28845;DHT22;15976;47.938;7.758;2023-06-19T21:49:19;25.60;49.30
28845;DHT22;15976;47.938;7.758;2023-06-19T21:51:46;25.60;49.50
28845;DHT22;15976;47.938;7.758;2023-06-19T21:54:13;25.60;49.80
28845;DHT22;15976;47.938;7.758;2023-06-19T21:56:40;25.50;49.90
28845;DHT22;15976;47.938;7.758;2023-06-19T21:59:07;25.50;49.90
28845;DHT22;15976;47.938;7.758;2023-06-19T22:01:35;25.50;50.10
28845;DHT22;15976;47.938;7.758;2023-06-19T22:04:02;25.50;50.00
28845;DHT22;15976;47.938;7.758;2023-06-19T22:06:33;25.50;49.80
28845;DHT22;15976;47.938;7.758;2023-06-19T22:09:00;25.40;49.70
28845;DHT22;15976;47.938;7.758;2023-06-19T22:11:28;25.40;49.50
28845;DHT22;15976;47.938;7.758;2023-06-19T22:13:55;25.40;49.50
28845;DHT22;15976;47.938;7.758;2023-06-19T22:16:22;25.40;49.60
28845;DHT22;15976;47.938;7.758;2023-06-19T22:18:50;25.40;50.00
28845;DHT22;15976;47.938;7.758;2023-06-19T22:21:17;25.40;50.20
28845;DHT22;15976;47.938;7.758;2023-06-19T22:23:44;25.40;50.40
28845;DHT22;15976;47.938;7.758;2023-06-19T22:26:11;25.40;50.70
28845;DHT22;15976;47.938;7.758;2023-06-19T22:28:38;25.40;50.80
28845;DHT22;15976;47.938;7.758;2023-06-19T22:31:05;25.40;51.00
28845;DHT22;15976;47.938;7.758;2023-06-19T22:33:33;25.40;51.10
28845;DHT22;15976;47.938;7.758;2023-06-19T22:36:00;25.40;51.10
28845;DHT22;15976;47.938;7.758;2023-06-19T22:38:27;25.30;52.10
28845;DHT22;15976;47.938;7.758;2023-06-19T22:40:54;24.70;56.50
28845;DHT22;15976;47.938;7.758;2023-06-19T22:43:21;24.10;60.10
28845;DHT22;15976;47.938;7.758;2023-06-19T22:45:48;23.60;64.80
28845;DHT22;15976;47.938;7.758;2023-06-19T22:48:16;23.10;68.70
28845;DHT22;15976;47.938;7.758;2023-06-19T22:50:45;22.80;71.40
28845;DHT22;15976;47.938;7.758;2023-06-19T22:53:14;22.70;73.30
28845;DHT22;15976;47.938;7.758;2023-06-19T22:55:42;22.60;75.10
28845;DHT22;15976;47.938;7.758;2023-06-19T22:58:09;22.50;76.90
28845;DHT22;15976;47.938;7.758;2023-06-19T23:00:36;22.30;78.70
28845;DHT22;15976;47.938;7.758;2023-06-19T23:03:04;22.00;81.60
28845;DHT22;15976;47.938;7.758;2023-06-19T23:05:32;21.90;84.20
28845;DHT22;15976;47.938;7.758;2023-06-19T23:08:02;21.80;85.90
28845;DHT22;15976;47.938;7.758;2023-06-19T23:10:29;21.70;87.30
28845;DHT22;15976;47.938;7.758;2023-06-19T23:12:56;21.60;88.30
28845;DHT22;15976;47.938;7.758;2023-06-19T23:15:23;21.30;89.20
28845;DHT22;15976;47.938;7.758;2023-06-19T23:17:51;21.20;90.60
28845;DHT22;15976;47.938;7.758;2023-06-19T23:20:20;21.10;91.00
28845;DHT22;15976;47.938;7.758;2023-06-19T23:22:47;21.00;91.30
28845;DHT22;15976;47.938;7.758;2023-06-19T23:25:14;20.90;91.70
28845;DHT22;15976;47.938;7.758;2023-06-19T23:27:41;20.80;92.10
28845;DHT22;15976;47.938;7.758;2023-06-19T23:30:09;20.70;92.30
28845;DHT22;15976;47.938;7.758;2023-06-19T23:32:36;20.60;92.60
28845;DHT22;15976;47.938;7.758;2023-06-19T23:35:04;20.60;92.70
28845;DHT22;15976;47.938;7.758;2023-06-19T23:37:31;20.50;93.00
28845;DHT22;15976;47.938;7.758;2023-06-19T23:39:58;20.50;93.30
28845;DHT22;15976;47.938;7.758;2023-06-19T23:42:25;20.50;93.40
28845;DHT22;15976;47.938;7.758;2023-06-19T23:44:52;20.50;93.30
28845;DHT22;15976;47.938;7.758;2023-06-19T23:47:19;20.50;93.10
28845;DHT22;15976;47.938;7.758;2023-06-19T23:49:46;20.40;93.50
28845;DHT22;15976;47.938;7.758;2023-06-19T23:52:15;20.50;93.50
28845;DHT22;15976;47.938;7.758;2023-06-19T23:54:47;20.40;93.30
28845;DHT22;15976;47.938;7.758;2023-06-19T23:57:14;20.40;93.30
28845;DHT22;15976;47.938;7.758;2023-06-19T23:59:41;20.30;93.20
